Aérodrome :
LOGIN :

S'inscrire | Disclaimer

   EN    FR    IT 

 










Légende :    VFR   VFR Marginal   IFR   IFR Intensif   IFR Très Intensif
Visi : 
Plafond : 
>= 8 km
>= 3000ft
5 à 8 km
1000 à 3000 ft
1500m à 5 km
500 à 1000 ft
800 à 1500m
200 à 500 ft
< 800m
< 200 ft
Symboles :   Orages  Brouillard  Fortes neiges  Fortes précipitations  Vent > 20 kt
SIGMETs :   Divers  Orages  Givrage  Turbulence  Onde Orograph.  Cendres Volcan.






- Altitude de l'aérodrome : 1649 ft
- Code IATA : HHN


EDFH - Frankfurt-Hahn Rhineland-Palatinate

DERNIER METAR :
  • 211520Z 22015KT 9999 BKN034 05/02 Q0996

METARs EXPIRÉS :
  • 211450Z 22012KT 9999 FEW012 SCT042 05/02 Q0996
  • 211420Z 22013KT 190V250 9999 FEW020 05/02 Q0996
  • 211350Z 23013G23KT 200V270 9999 SCT018 05/02 Q0996
  • 211320Z 24014KT 200V270 9999 BKN020 05/02 Q0996
  • 211250Z 23013KT 9999 BKN017 05/02 Q0997

TAF TAF EDFH
Valide du 21 à 12h jusqu'au 22 à 12h UTC


211100Z 2112/2212 22012KT 9999 BKN015
PROB40
TEMPO 2112/2118 22015G30KT BKN012
BECMG 2118/2120 21020G35KT
TEMPO 2118/2212 RA BKN008
TEMPO 2120/2205 21025G40KT
BECMG 2205/2207 25009KT BKN012



MET'MAP, la Météo Aéronautique d'un coup d'oeil ! - Copyright ORBIFLY Décembre 2007 - Disclaimer

ORBIFLY MET'MAP TEAM :

Programmation & Développement : Alexandra Zaïnal
Sur une idée originale de : Baudouin d'Aumeries
Assistance à la programmation : Marc-Olivier Méhu
Soutien technique & logistique : Manuel Goepfert

Contact : metmap@orbifly.com




SOURCES & CREDITS :

   NOAA